sensor_id;sensor_type;location;lat;lon;timestamp;P1;durP1;ratioP1;P2;durP2;ratioP2
55134;SDS011;41031;44.750;11.308;2022-10-10T00:00:53;8.73;;;5.87;;
55134;SDS011;41031;44.750;11.308;2022-10-10T00:03:20;8.10;;;5.67;;
55134;SDS011;41031;44.750;11.308;2022-10-10T00:05:47;6.27;;;5.27;;
55134;SDS011;41031;44.750;11.308;2022-10-10T00:08:14;9.37;;;5.40;;
55134;SDS011;41031;44.750;11.308;2022-10-10T00:10:41;9.70;;;5.30;;
55134;SDS011;41031;44.750;11.308;2022-10-10T00:13:08;7.63;;;5.47;;
55134;SDS011;41031;44.750;11.308;2022-10-10T00:15:35;10.20;;;6.30;;
55134;SDS011;41031;44.750;11.308;2022-10-10T00:18:02;5.87;;;5.20;;
55134;SDS011;41031;44.750;11.308;2022-10-10T00:20:30;6.10;;;5.10;;
55134;SDS011;41031;44.750;11.308;2022-10-10T00:22:57;6.23;;;5.63;;
55134;SDS011;41031;44.750;11.308;2022-10-10T00:25:24;6.60;;;4.83;;
55134;SDS011;41031;44.750;11.308;2022-10-10T00:27:51;8.53;;;5.17;;
55134;SDS011;41031;44.750;11.308;2022-10-10T00:30:18;10.23;;;5.60;;
55134;SDS011;41031;44.750;11.308;2022-10-10T00:32:45;9.90;;;5.37;;
55134;SDS011;41031;44.750;11.308;2022-10-10T00:35:12;7.03;;;4.43;;
55134;SDS011;41031;44.750;11.308;2022-10-10T00:37:39;8.60;;;5.00;;
55134;SDS011;41031;44.750;11.308;2022-10-10T00:40:06;7.10;;;4.40;;
55134;SDS011;41031;44.750;11.308;2022-10-10T00:42:34;7.17;;;4.50;;
55134;SDS011;41031;44.750;11.308;2022-10-10T00:48:02;9.90;;;5.20;;
55134;SDS011;41031;44.750;11.308;2022-10-10T00:50:33;7.53;;;5.43;;
55134;SDS011;41031;44.750;11.308;2022-10-10T00:53:04;7.90;;;5.50;;
55134;SDS011;41031;44.750;11.308;2022-10-10T00:55:32;6.37;;;4.83;;
55134;SDS011;41031;44.750;11.308;2022-10-10T00:58:00;9.30;;;4.33;;
55134;SDS011;41031;44.750;11.308;2022-10-10T01:00:28;7.40;;;4.80;;
55134;SDS011;41031;44.750;11.308;2022-10-10T01:02:55;10.23;;;4.83;;
55134;SDS011;41031;44.750;11.308;2022-10-10T01:05:22;8.43;;;4.70;;
55134;SDS011;41031;44.750;11.308;2022-10-10T01:07:50;7.07;;;4.73;;
55134;SDS011;41031;44.750;11.308;2022-10-10T01:10:18;9.23;;;4.63;;
55134;SDS011;41031;44.750;11.308;2022-10-10T01:15:24;9.20;;;4.43;;
55134;SDS011;41031;44.750;11.308;2022-10-10T01:31:38;10.40;;;5.50;;
55134;SDS011;41031;44.750;11.308;2022-10-10T01:34:15;4.87;;;4.37;;
55134;SDS011;41031;44.750;11.308;2022-10-10T01:36:58;4.90;;;4.40;;
55134;SDS011;41031;44.750;11.308;2022-10-10T01:39:28;6.77;;;4.37;;
55134;SDS011;41031;44.750;11.308;2022-10-10T01:42:13;4.90;;;4.40;;
55134;SDS011;41031;44.750;11.308;2022-10-10T01:44:45;8.30;;;4.40;;
55134;SDS011;41031;44.750;11.308;2022-10-10T01:47:13;11.70;;;4.73;;
55134;SDS011;41031;44.750;11.308;2022-10-10T01:49:41;11.63;;;4.37;;
55134;SDS011;41031;44.750;11.308;2022-10-10T01:52:21;6.93;;;4.30;;
55134;SDS011;41031;44.750;11.308;2022-10-10T02:01:13;5.17;;;4.10;;
55134;SDS011;41031;44.750;11.308;2022-10-10T02:03:49;10.57;;;4.40;;
55134;SDS011;41031;44.750;11.308;2022-10-10T02:06:41;8.67;;;4.77;;
55134;SDS011;41031;44.750;11.308;2022-10-10T02:09:16;8.73;;;4.50;;
55134;SDS011;41031;44.750;11.308;2022-10-10T02:11:47;7.03;;;4.47;;
55134;SDS011;41031;44.750;11.308;2022-10-10T02:14:22;6.63;;;4.73;;
55134;SDS011;41031;44.750;11.308;2022-10-10T02:16:53;6.83;;;4.63;;
55134;SDS011;41031;44.750;11.308;2022-10-10T02:19:22;6.07;;;4.13;;
55134;SDS011;41031;44.750;11.308;2022-10-10T02:21:51;6.53;;;4.30;;
55134;SDS011;41031;44.750;11.308;2022-10-10T02:24:20;7.90;;;4.70;;
55134;SDS011;41031;44.750;11.308;2022-10-10T02:26:53;7.03;;;4.13;;
55134;SDS011;41031;44.750;11.308;2022-10-10T02:29:29;6.17;;;4.77;;
55134;SDS011;41031;44.750;11.308;2022-10-10T02:32:04;7.47;;;4.10;;
55134;SDS011;41031;44.750;11.308;2022-10-10T02:34:37;6.17;;;4.60;;
55134;SDS011;41031;44.750;11.308;2022-10-10T02:37:09;6.93;;;4.50;;
55134;SDS011;41031;44.750;11.308;2022-10-10T02:39:42;9.40;;;4.37;;
55134;SDS011;41031;44.750;11.308;2022-10-10T02:42:13;7.13;;;4.43;;
55134;SDS011;41031;44.750;11.308;2022-10-10T02:44:44;5.40;;;4.10;;
55134;SDS011;41031;44.750;11.308;2022-10-10T02:47:12;5.33;;;4.23;;
55134;SDS011;41031;44.750;11.308;2022-10-10T02:49:40;6.83;;;4.23;;
55134;SDS011;41031;44.750;11.308;2022-10-10T02:52:07;8.23;;;4.27;;
55134;SDS011;41031;44.750;11.308;2022-10-10T02:54:35;6.67;;;4.23;;
55134;SDS011;41031;44.750;11.308;2022-10-10T02:57:02;7.30;;;4.40;;
55134;SDS011;41031;44.750;11.308;2022-10-10T02:59:29;13.80;;;5.00;;
55134;SDS011;41031;44.750;11.308;2022-10-10T03:01:56;4.37;;;3.97;;
55134;SDS011;41031;44.750;11.308;2022-10-10T03:04:23;6.63;;;4.33;;
55134;SDS011;41031;44.750;11.308;2022-10-10T03:06:50;6.60;;;4.17;;
55134;SDS011;41031;44.750;11.308;2022-10-10T03:09:18;5.17;;;4.03;;
55134;SDS011;41031;44.750;11.308;2022-10-10T03:11:45;9.53;;;4.20;;
55134;SDS011;41031;44.750;11.308;2022-10-10T03:14:12;5.13;;;4.00;;
55134;SDS011;41031;44.750;11.308;2022-10-10T03:16:40;5.37;;;4.23;;
55134;SDS011;41031;44.750;11.308;2022-10-10T03:19:07;6.90;;;4.47;;
55134;SDS011;41031;44.750;11.308;2022-10-10T03:21:34;7.63;;;4.60;;
55134;SDS011;41031;44.750;11.308;2022-10-10T03:24:01;7.73;;;4.37;;
55134;SDS011;41031;44.750;11.308;2022-10-10T03:26:30;12.07;;;4.50;;
55134;SDS011;41031;44.750;11.308;2022-10-10T03:28:57;9.17;;;3.73;;
55134;SDS011;41031;44.750;11.308;2022-10-10T03:31:26;5.00;;;3.97;;
55134;SDS011;41031;44.750;11.308;2022-10-10T03:33:53;7.23;;;4.03;;
55134;SDS011;41031;44.750;11.308;2022-10-10T03:36:20;5.23;;;4.43;;
55134;SDS011;41031;44.750;11.308;2022-10-10T03:38:47;8.30;;;4.03;;
55134;SDS011;41031;44.750;11.308;2022-10-10T03:41:15;6.80;;;4.40;;
55134;SDS011;41031;44.750;11.308;2022-10-10T03:43:41;6.27;;;4.03;;
55134;SDS011;41031;44.750;11.308;2022-10-10T03:46:08;9.20;;;4.97;;
55134;SDS011;41031;44.750;11.308;2022-10-10T03:48:41;5.77;;;4.90;;
55134;SDS011;41031;44.750;11.308;2022-10-10T03:51:08;6.40;;;4.60;;
55134;SDS011;41031;44.750;11.308;2022-10-10T03:53:35;5.27;;;4.10;;
55134;SDS011;41031;44.750;11.308;2022-10-10T03:56:03;4.27;;;3.87;;
55134;SDS011;41031;44.750;11.308;2022-10-10T03:58:30;7.10;;;4.27;;
55134;SDS011;41031;44.750;11.308;2022-10-10T04:00:59;7.77;;;4.67;;
55134;SDS011;41031;44.750;11.308;2022-10-10T04:03:28;5.57;;;4.00;;
55134;SDS011;41031;44.750;11.308;2022-10-10T04:05:56;4.87;;;3.77;;
55134;SDS011;41031;44.750;11.308;2022-10-10T04:08:23;12.77;;;4.67;;
55134;SDS011;41031;44.750;11.308;2022-10-10T04:10:50;6.50;;;4.33;;
55134;SDS011;41031;44.750;11.308;2022-10-10T04:13:19;6.33;;;4.37;;
55134;SDS011;41031;44.750;11.308;2022-10-10T04:15:51;6.93;;;4.30;;
55134;SDS011;41031;44.750;11.308;2022-10-10T04:18:19;9.70;;;4.40;;
55134;SDS011;41031;44.750;11.308;2022-10-10T04:20:46;5.63;;;3.63;;
55134;SDS011;41031;44.750;11.308;2022-10-10T04:23:13;6.47;;;4.13;;
55134;SDS011;41031;44.750;11.308;2022-10-10T04:25:40;9.17;;;5.03;;
55134;SDS011;41031;44.750;11.308;2022-10-10T04:28:12;9.40;;;4.70;;
55134;SDS011;41031;44.750;11.308;2022-10-10T04:30:40;6.10;;;4.00;;
55134;SDS011;41031;44.750;11.308;2022-10-10T04:33:07;6.67;;;4.50;;
55134;SDS011;41031;44.750;11.308;2022-10-10T04:35:34;6.40;;;4.27;;
55134;SDS011;41031;44.750;11.308;2022-10-10T04:38:02;20.07;;;5.77;;
55134;SDS011;41031;44.750;11.308;2022-10-10T04:40:30;11.27;;;5.07;;
55134;SDS011;41031;44.750;11.308;2022-10-10T04:42:58;8.43;;;4.50;;
55134;SDS011;41031;44.750;11.308;2022-10-10T04:45:25;6.17;;;4.10;;
55134;SDS011;41031;44.750;11.308;2022-10-10T04:47:52;9.17;;;4.43;;
55134;SDS011;41031;44.750;11.308;2022-10-10T04:50:20;7.73;;;4.30;;
55134;SDS011;41031;44.750;11.308;2022-10-10T04:52:48;5.73;;;4.47;;
55134;SDS011;41031;44.750;11.308;2022-10-10T04:55:16;7.93;;;4.37;;
55134;SDS011;41031;44.750;11.308;2022-10-10T04:57:43;5.60;;;4.07;;
55134;SDS011;41031;44.750;11.308;2022-10-10T05:00:10;5.17;;;4.07;;
55134;SDS011;41031;44.750;11.308;2022-10-10T05:02:37;8.00;;;4.43;;
55134;SDS011;41031;44.750;11.308;2022-10-10T05:05:04;7.37;;;4.83;;
55134;SDS011;41031;44.750;11.308;2022-10-10T05:07:32;8.87;;;4.60;;
55134;SDS011;41031;44.750;11.308;2022-10-10T05:09:59;6.27;;;4.03;;
55134;SDS011;41031;44.750;11.308;2022-10-10T05:12:26;6.83;;;4.20;;
55134;SDS011;41031;44.750;11.308;2022-10-10T05:14:53;6.10;;;4.43;;
55134;SDS011;41031;44.750;11.308;2022-10-10T05:17:20;7.13;;;4.10;;
55134;SDS011;41031;44.750;11.308;2022-10-10T05:19:47;7.43;;;4.47;;
55134;SDS011;41031;44.750;11.308;2022-10-10T05:22:14;6.60;;;4.67;;
55134;SDS011;41031;44.750;11.308;2022-10-10T05:24:41;6.80;;;4.47;;
55134;SDS011;41031;44.750;11.308;2022-10-10T05:27:08;5.20;;;4.10;;
55134;SDS011;41031;44.750;11.308;2022-10-10T05:29:35;6.17;;;4.00;;
55134;SDS011;41031;44.750;11.308;2022-10-10T05:32:02;9.30;;;4.40;;
55134;SDS011;41031;44.750;11.308;2022-10-10T05:34:35;7.10;;;4.03;;
55134;SDS011;41031;44.750;11.308;2022-10-10T05:37:02;8.00;;;4.53;;
55134;SDS011;41031;44.750;11.308;2022-10-10T05:39:29;5.57;;;4.57;;
55134;SDS011;41031;44.750;11.308;2022-10-10T05:41:56;9.77;;;4.60;;
55134;SDS011;41031;44.750;11.308;2022-10-10T05:44:23;9.30;;;4.30;;
55134;SDS011;41031;44.750;11.308;2022-10-10T05:46:50;9.57;;;4.60;;
55134;SDS011;41031;44.750;11.308;2022-10-10T05:49:18;8.47;;;4.63;;
55134;SDS011;41031;44.750;11.308;2022-10-10T05:51:45;9.93;;;5.33;;
55134;SDS011;41031;44.750;11.308;2022-10-10T05:54:12;6.23;;;3.97;;
55134;SDS011;41031;44.750;11.308;2022-10-10T05:56:39;6.97;;;4.50;;
55134;SDS011;41031;44.750;11.308;2022-10-10T05:59:07;5.67;;;4.70;;
55134;SDS011;41031;44.750;11.308;2022-10-10T06:01:34;9.60;;;4.10;;
55134;SDS011;41031;44.750;11.308;2022-10-10T06:04:02;5.37;;;3.97;;
55134;SDS011;41031;44.750;11.308;2022-10-10T06:06:29;7.70;;;5.03;;
55134;SDS011;41031;44.750;11.308;2022-10-10T06:08:56;5.80;;;4.13;;
55134;SDS011;41031;44.750;11.308;2022-10-10T06:11:24;8.13;;;4.37;;
55134;SDS011;41031;44.750;11.308;2022-10-10T06:13:52;9.27;;;4.57;;
55134;SDS011;41031;44.750;11.308;2022-10-10T06:16:23;8.70;;;4.37;;
55134;SDS011;41031;44.750;11.308;2022-10-10T06:18:51;5.27;;;4.57;;
55134;SDS011;41031;44.750;11.308;2022-10-10T06:21:19;7.93;;;4.63;;
55134;SDS011;41031;44.750;11.308;2022-10-10T06:23:46;6.97;;;4.47;;
55134;SDS011;41031;44.750;11.308;2022-10-10T06:26:13;5.30;;;4.53;;
55134;SDS011;41031;44.750;11.308;2022-10-10T06:28:41;12.20;;;4.83;;
55134;SDS011;41031;44.750;11.308;2022-10-10T06:31:10;8.07;;;4.63;;
55134;SDS011;41031;44.750;11.308;2022-10-10T06:33:39;6.73;;;4.70;;
55134;SDS011;41031;44.750;11.308;2022-10-10T06:36:09;6.23;;;4.53;;
55134;SDS011;41031;44.750;11.308;2022-10-10T06:38:37;5.23;;;4.37;;
55134;SDS011;41031;44.750;11.308;2022-10-10T06:41:05;7.43;;;5.20;;
55134;SDS011;41031;44.750;11.308;2022-10-10T06:43:33;7.50;;;4.30;;
55134;SDS011;41031;44.750;11.308;2022-10-10T06:46:00;9.77;;;5.27;;
55134;SDS011;41031;44.750;11.308;2022-10-10T06:48:28;10.80;;;5.43;;
55134;SDS011;41031;44.750;11.308;2022-10-10T06:51:06;6.90;;;5.03;;
55134;SDS011;41031;44.750;11.308;2022-10-10T06:53:38;12.63;;;5.20;;
55134;SDS011;41031;44.750;11.308;2022-10-10T06:56:05;5.23;;;4.40;;
55134;SDS011;41031;44.750;11.308;2022-10-10T06:58:32;11.00;;;4.73;;
55134;SDS011;41031;44.750;11.308;2022-10-10T07:01:01;9.27;;;5.07;;
55134;SDS011;41031;44.750;11.308;2022-10-10T07:03:30;11.90;;;4.53;;
55134;SDS011;41031;44.750;11.308;2022-10-10T07:05:58;11.33;;;4.50;;
55134;SDS011;41031;44.750;11.308;2022-10-10T07:08:26;7.70;;;4.70;;
55134;SDS011;41031;44.750;11.308;2022-10-10T07:10:57;7.03;;;4.43;;
55134;SDS011;41031;44.750;11.308;2022-10-10T07:13:24;6.43;;;4.30;;
55134;SDS011;41031;44.750;11.308;2022-10-10T07:15:51;11.93;;;4.60;;
55134;SDS011;41031;44.750;11.308;2022-10-10T07:18:18;7.80;;;4.13;;
55134;SDS011;41031;44.750;11.308;2022-10-10T07:20:46;9.97;;;4.37;;
55134;SDS011;41031;44.750;11.308;2022-10-10T07:23:15;6.87;;;4.23;;
55134;SDS011;41031;44.750;11.308;2022-10-10T07:25:42;8.07;;;4.73;;
55134;SDS011;41031;44.750;11.308;2022-10-10T07:28:09;6.53;;;3.97;;
55134;SDS011;41031;44.750;11.308;2022-10-10T07:30:40;6.23;;;4.33;;
55134;SDS011;41031;44.750;11.308;2022-10-10T07:33:10;6.77;;;4.27;;
55134;SDS011;41031;44.750;11.308;2022-10-10T07:35:38;7.87;;;3.90;;
55134;SDS011;41031;44.750;11.308;2022-10-10T07:38:05;8.43;;;4.03;;
55134;SDS011;41031;44.750;11.308;2022-10-10T07:40:33;5.43;;;4.43;;
55134;SDS011;41031;44.750;11.308;2022-10-10T07:43:00;7.67;;;4.70;;
55134;SDS011;41031;44.750;11.308;2022-10-10T07:45:27;5.67;;;3.63;;
55134;SDS011;41031;44.750;11.308;2022-10-10T07:47:54;6.70;;;4.50;;
55134;SDS011;41031;44.750;11.308;2022-10-10T07:50:21;7.37;;;4.57;;
55134;SDS011;41031;44.750;11.308;2022-10-10T07:52:50;8.07;;;3.93;;
55134;SDS011;41031;44.750;11.308;2022-10-10T07:55:17;7.67;;;3.80;;
55134;SDS011;41031;44.750;11.308;2022-10-10T07:57:44;7.03;;;4.80;;
55134;SDS011;41031;44.750;11.308;2022-10-10T08:00:18;5.73;;;4.30;;
55134;SDS011;41031;44.750;11.308;2022-10-10T08:02:45;8.80;;;4.47;;
55134;SDS011;41031;44.750;11.308;2022-10-10T08:05:12;6.33;;;4.07;;
55134;SDS011;41031;44.750;11.308;2022-10-10T08:07:39;7.97;;;4.70;;
55134;SDS011;41031;44.750;11.308;2022-10-10T08:10:07;7.50;;;4.97;;
55134;SDS011;41031;44.750;11.308;2022-10-10T08:12:35;8.63;;;3.57;;
55134;SDS011;41031;44.750;11.308;2022-10-10T08:15:03;7.40;;;3.70;;
55134;SDS011;41031;44.750;11.308;2022-10-10T08:17:31;5.70;;;4.00;;
55134;SDS011;41031;44.750;11.308;2022-10-10T08:19:59;5.67;;;4.83;;
55134;SDS011;41031;44.750;11.308;2022-10-10T08:22:26;7.67;;;3.80;;
55134;SDS011;41031;44.750;11.308;2022-10-10T08:24:53;6.03;;;4.00;;
55134;SDS011;41031;44.750;11.308;2022-10-10T08:27:20;7.37;;;4.03;;
55134;SDS011;41031;44.750;11.308;2022-10-10T08:29:47;9.03;;;4.70;;
55134;SDS011;41031;44.750;11.308;2022-10-10T08:32:15;6.30;;;3.90;;
55134;SDS011;41031;44.750;11.308;2022-10-10T08:34:41;7.20;;;4.50;;
55134;SDS011;41031;44.750;11.308;2022-10-10T08:37:09;6.17;;;3.97;;
55134;SDS011;41031;44.750;11.308;2022-10-10T08:39:35;5.17;;;3.17;;
55134;SDS011;41031;44.750;11.308;2022-10-10T08:42:03;11.30;;;4.13;;
55134;SDS011;41031;44.750;11.308;2022-10-10T08:44:38;6.70;;;4.13;;
55134;SDS011;41031;44.750;11.308;2022-10-10T08:49:39;6.93;;;3.20;;
55134;SDS011;41031;44.750;11.308;2022-10-10T08:54:57;6.53;;;3.90;;
55134;SDS011;41031;44.750;11.308;2022-10-10T09:00:17;9.27;;;4.10;;
55134;SDS011;41031;44.750;11.308;2022-10-10T09:02:51;9.30;;;4.03;;
55134;SDS011;41031;44.750;11.308;2022-10-10T09:05:27;9.53;;;3.63;;
55134;SDS011;41031;44.750;11.308;2022-10-10T09:13:46;7.13;;;3.77;;
55134;SDS011;41031;44.750;11.308;2022-10-10T09:21:43;7.70;;;3.70;;
55134;SDS011;41031;44.750;11.308;2022-10-10T09:24:29;7.33;;;3.20;;
55134;SDS011;41031;44.750;11.308;2022-10-10T09:27:02;6.20;;;3.10;;
55134;SDS011;41031;44.750;11.308;2022-10-10T09:35:21;5.53;;;3.67;;
55134;SDS011;41031;44.750;11.308;2022-10-10T09:37:54;6.57;;;3.87;;
55134;SDS011;41031;44.750;11.308;2022-10-10T09:40:29;3.30;;;3.00;;
55134;SDS011;41031;44.750;11.308;2022-10-10T09:43:00;6.57;;;3.40;;
55134;SDS011;41031;44.750;11.308;2022-10-10T09:45:38;6.50;;;3.77;;
55134;SDS011;41031;44.750;11.308;2022-10-10T09:48:08;4.93;;;3.37;;
55134;SDS011;41031;44.750;11.308;2022-10-10T09:50:36;7.83;;;3.60;;
55134;SDS011;41031;44.750;11.308;2022-10-10T09:53:11;7.53;;;3.83;;
55134;SDS011;41031;44.750;11.308;2022-10-10T09:55:41;6.83;;;3.93;;
55134;SDS011;41031;44.750;11.308;2022-10-10T10:00:46;5.60;;;3.43;;
55134;SDS011;41031;44.750;11.308;2022-10-10T10:03:17;5.73;;;3.90;;
55134;SDS011;41031;44.750;11.308;2022-10-10T10:05:53;6.23;;;3.67;;
55134;SDS011;41031;44.750;11.308;2022-10-10T10:08:40;6.33;;;3.97;;
55134;SDS011;41031;44.750;11.308;2022-10-10T10:11:27;8.53;;;3.63;;
55134;SDS011;41031;44.750;11.308;2022-10-10T10:14:01;9.33;;;4.10;;
55134;SDS011;41031;44.750;11.308;2022-10-10T10:16:30;13.77;;;4.53;;
55134;SDS011;41031;44.750;11.308;2022-10-10T10:19:03;7.93;;;3.37;;
55134;SDS011;41031;44.750;11.308;2022-10-10T10:21:46;3.97;;;3.50;;
55134;SDS011;41031;44.750;11.308;2022-10-10T10:24:18;7.70;;;4.03;;
55134;SDS011;41031;44.750;11.308;2022-10-10T10:26:49;7.57;;;3.43;;
55134;SDS011;41031;44.750;11.308;2022-10-10T10:29:35;6.83;;;3.70;;
55134;SDS011;41031;44.750;11.308;2022-10-10T10:37:25;5.37;;;3.40;;
55134;SDS011;41031;44.750;11.308;2022-10-10T10:48:30;7.77;;;3.67;;
55134;SDS011;41031;44.750;11.308;2022-10-10T10:54:01;7.27;;;3.90;;
55134;SDS011;41031;44.750;11.308;2022-10-10T11:00:15;4.13;;;3.47;;
55134;SDS011;41031;44.750;11.308;2022-10-10T11:06:15;6.93;;;3.93;;
55134;SDS011;41031;44.750;11.308;2022-10-10T11:09:28;5.23;;;3.40;;
55134;SDS011;41031;44.750;11.308;2022-10-10T11:12:33;5.20;;;4.10;;
55134;SDS011;41031;44.750;11.308;2022-10-10T11:17:37;8.53;;;4.50;;
55134;SDS011;41031;44.750;11.308;2022-10-10T11:22:52;7.47;;;4.77;;
55134;SDS011;41031;44.750;11.308;2022-10-10T11:25:35;9.30;;;4.77;;
55134;SDS011;41031;44.750;11.308;2022-10-10T11:28:09;5.50;;;4.37;;
55134;SDS011;41031;44.750;11.308;2022-10-10T11:30:55;7.73;;;5.20;;
55134;SDS011;41031;44.750;11.308;2022-10-10T11:33:29;5.70;;;4.10;;
55134;SDS011;41031;44.750;11.308;2022-10-10T11:44:25;7.57;;;4.20;;
55134;SDS011;41031;44.750;11.308;2022-10-10T11:47:19;6.03;;;4.40;;
55134;SDS011;41031;44.750;11.308;2022-10-10T11:52:23;5.43;;;4.63;;
55134;SDS011;41031;44.750;11.308;2022-10-10T11:55:14;5.73;;;3.90;;
55134;SDS011;41031;44.750;11.308;2022-10-10T12:00:33;8.93;;;4.43;;
55134;SDS011;41031;44.750;11.308;2022-10-10T12:03:13;6.30;;;4.57;;
55134;SDS011;41031;44.750;11.308;2022-10-10T12:05:42;6.70;;;4.77;;
55134;SDS011;41031;44.750;11.308;2022-10-10T12:08:19;6.80;;;4.30;;
55134;SDS011;41031;44.750;11.308;2022-10-10T12:10:56;7.70;;;5.30;;
55134;SDS011;41031;44.750;11.308;2022-10-10T12:13:32;5.00;;;4.30;;
55134;SDS011;41031;44.750;11.308;2022-10-10T12:16:06;9.63;;;4.40;;
55134;SDS011;41031;44.750;11.308;2022-10-10T12:21:15;6.20;;;4.63;;
55134;SDS011;41031;44.750;11.308;2022-10-10T12:35:02;5.67;;;4.43;;
55134;SDS011;41031;44.750;11.308;2022-10-10T12:38:05;5.57;;;4.17;;
55134;SDS011;41031;44.750;11.308;2022-10-10T12:41:02;4.97;;;4.47;;
55134;SDS011;41031;44.750;11.308;2022-10-10T12:46:36;9.80;;;4.77;;
55134;SDS011;41031;44.750;11.308;2022-10-10T12:52:09;5.37;;;4.17;;
55134;SDS011;41031;44.750;11.308;2022-10-10T12:54:41;8.00;;;4.73;;
55134;SDS011;41031;44.750;11.308;2022-10-10T12:57:30;8.77;;;4.93;;
55134;SDS011;41031;44.750;11.308;2022-10-10T13:00:16;6.77;;;4.57;;
55134;SDS011;41031;44.750;11.308;2022-10-10T13:02:45;6.93;;;4.47;;
55134;SDS011;41031;44.750;11.308;2022-10-10T13:05:18;8.93;;;5.03;;
55134;SDS011;41031;44.750;11.308;2022-10-10T13:07:55;6.03;;;5.37;;
55134;SDS011;41031;44.750;11.308;2022-10-10T13:10:27;8.27;;;5.30;;
55134;SDS011;41031;44.750;11.308;2022-10-10T13:13:05;6.70;;;5.10;;
55134;SDS011;41031;44.750;11.308;2022-10-10T13:15:33;9.00;;;5.33;;
55134;SDS011;41031;44.750;11.308;2022-10-10T13:18:00;8.03;;;5.90;;
55134;SDS011;41031;44.750;11.308;2022-10-10T13:20:33;6.10;;;5.10;;
55134;SDS011;41031;44.750;11.308;2022-10-10T13:23:06;10.23;;;5.60;;
55134;SDS011;41031;44.750;11.308;2022-10-10T13:25:38;7.63;;;5.53;;
55134;SDS011;41031;44.750;11.308;2022-10-10T13:28:17;8.53;;;6.33;;
55134;SDS011;41031;44.750;11.308;2022-10-10T13:30:46;8.97;;;5.57;;
55134;SDS011;41031;44.750;11.308;2022-10-10T13:33:16;10.03;;;5.00;;
55134;SDS011;41031;44.750;11.308;2022-10-10T13:35:45;5.03;;;4.53;;
55134;SDS011;41031;44.750;11.308;2022-10-10T13:38:14;7.47;;;5.37;;
55134;SDS011;41031;44.750;11.308;2022-10-10T13:40:43;6.67;;;5.23;;
55134;SDS011;41031;44.750;11.308;2022-10-10T13:43:14;9.20;;;5.37;;
55134;SDS011;41031;44.750;11.308;2022-10-10T13:45:55;8.53;;;5.13;;
55134;SDS011;41031;44.750;11.308;2022-10-10T13:48:28;7.37;;;4.57;;
55134;SDS011;41031;44.750;11.308;2022-10-10T13:51:08;7.00;;;4.73;;
55134;SDS011;41031;44.750;11.308;2022-10-10T14:06:57;10.03;;;5.40;;
55134;SDS011;41031;44.750;11.308;2022-10-10T14:09:41;8.67;;;5.30;;
55134;SDS011;41031;44.750;11.308;2022-10-10T14:12:26;5.00;;;4.50;;
55134;SDS011;41031;44.750;11.308;2022-10-10T14:14:58;9.03;;;5.43;;
55134;SDS011;41031;44.750;11.308;2022-10-10T14:17:26;9.83;;;4.97;;
55134;SDS011;41031;44.750;11.308;2022-10-10T14:19:54;6.50;;;5.20;;
55134;SDS011;41031;44.750;11.308;2022-10-10T14:22:22;9.50;;;4.80;;
55134;SDS011;41031;44.750;11.308;2022-10-10T14:24:49;5.57;;;4.83;;
55134;SDS011;41031;44.750;11.308;2022-10-10T14:29:49;10.63;;;5.40;;
55134;SDS011;41031;44.750;11.308;2022-10-10T14:32:17;9.67;;;4.97;;
55134;SDS011;41031;44.750;11.308;2022-10-10T14:34:45;9.93;;;5.43;;
55134;SDS011;41031;44.750;11.308;2022-10-10T14:37:15;7.27;;;5.03;;
55134;SDS011;41031;44.750;11.308;2022-10-10T14:39:48;6.13;;;4.80;;
55134;SDS011;41031;44.750;11.308;2022-10-10T14:42:15;6.70;;;4.40;;
55134;SDS011;41031;44.750;11.308;2022-10-10T14:44:43;9.10;;;4.70;;
55134;SDS011;41031;44.750;11.308;2022-10-10T14:47:21;5.10;;;4.47;;
55134;SDS011;41031;44.750;11.308;2022-10-10T14:49:49;6.03;;;4.67;;
55134;SDS011;41031;44.750;11.308;2022-10-10T14:52:21;5.77;;;5.13;;
55134;SDS011;41031;44.750;11.308;2022-10-10T14:54:48;8.23;;;4.60;;
55134;SDS011;41031;44.750;11.308;2022-10-10T14:57:15;11.93;;;5.13;;
55134;SDS011;41031;44.750;11.308;2022-10-10T14:59:43;8.67;;;4.83;;
55134;SDS011;41031;44.750;11.308;2022-10-10T15:02:18;6.20;;;4.87;;
55134;SDS011;41031;44.750;11.308;2022-10-10T15:04:47;10.93;;;4.93;;
55134;SDS011;41031;44.750;11.308;2022-10-10T15:07:14;13.47;;;4.50;;
55134;SDS011;41031;44.750;11.308;2022-10-10T15:09:46;8.17;;;4.50;;
55134;SDS011;41031;44.750;11.308;2022-10-10T15:12:35;9.10;;;5.00;;
55134;SDS011;41031;44.750;11.308;2022-10-10T15:15:04;8.80;;;4.50;;
55134;SDS011;41031;44.750;11.308;2022-10-10T15:17:32;8.27;;;4.40;;
55134;SDS011;41031;44.750;11.308;2022-10-10T15:20:00;8.50;;;4.77;;
55134;SDS011;41031;44.750;11.308;2022-10-10T15:22:30;8.43;;;3.90;;
55134;SDS011;41031;44.750;11.308;2022-10-10T15:24:57;6.97;;;4.70;;
55134;SDS011;41031;44.750;11.308;2022-10-10T15:27:24;10.20;;;4.97;;
55134;SDS011;41031;44.750;11.308;2022-10-10T15:29:53;7.97;;;4.63;;
55134;SDS011;41031;44.750;11.308;2022-10-10T15:32:21;5.73;;;4.30;;
55134;SDS011;41031;44.750;11.308;2022-10-10T15:34:48;5.80;;;4.60;;
55134;SDS011;41031;44.750;11.308;2022-10-10T15:37:16;6.13;;;4.33;;
55134;SDS011;41031;44.750;11.308;2022-10-10T15:39:44;8.90;;;4.33;;
55134;SDS011;41031;44.750;11.308;2022-10-10T15:42:11;8.20;;;4.73;;
55134;SDS011;41031;44.750;11.308;2022-10-10T15:44:47;9.67;;;4.53;;
55134;SDS011;41031;44.750;11.308;2022-10-10T15:47:15;7.93;;;4.57;;
55134;SDS011;41031;44.750;11.308;2022-10-10T15:49:43;8.13;;;4.40;;
55134;SDS011;41031;44.750;11.308;2022-10-10T15:52:10;10.80;;;5.47;;
55134;SDS011;41031;44.750;11.308;2022-10-10T15:54:37;8.07;;;4.90;;
55134;SDS011;41031;44.750;11.308;2022-10-10T15:57:05;8.30;;;5.13;;
55134;SDS011;41031;44.750;11.308;2022-10-10T15:59:32;8.70;;;4.77;;
55134;SDS011;41031;44.750;11.308;2022-10-10T16:02:03;10.67;;;4.60;;
55134;SDS011;41031;44.750;11.308;2022-10-10T16:04:30;16.30;;;4.60;;
55134;SDS011;41031;44.750;11.308;2022-10-10T16:06:57;7.50;;;5.20;;
55134;SDS011;41031;44.750;11.308;2022-10-10T16:09:44;6.90;;;4.30;;
55134;SDS011;41031;44.750;11.308;2022-10-10T16:12:11;5.97;;;4.23;;
55134;SDS011;41031;44.750;11.308;2022-10-10T16:14:38;10.37;;;5.37;;
55134;SDS011;41031;44.750;11.308;2022-10-10T16:17:05;12.80;;;5.23;;
55134;SDS011;41031;44.750;11.308;2022-10-10T16:19:32;9.13;;;4.53;;
55134;SDS011;41031;44.750;11.308;2022-10-10T16:21:59;11.60;;;5.13;;
55134;SDS011;41031;44.750;11.308;2022-10-10T16:24:26;8.47;;;5.00;;
55134;SDS011;41031;44.750;11.308;2022-10-10T16:26:53;16.73;;;6.07;;
55134;SDS011;41031;44.750;11.308;2022-10-10T16:29:20;17.63;;;6.10;;
55134;SDS011;41031;44.750;11.308;2022-10-10T16:31:47;20.77;;;6.13;;
55134;SDS011;41031;44.750;11.308;2022-10-10T16:34:14;23.07;;;6.33;;
55134;SDS011;41031;44.750;11.308;2022-10-10T16:36:42;24.73;;;6.33;;
55134;SDS011;41031;44.750;11.308;2022-10-10T16:39:09;33.97;;;6.13;;
55134;SDS011;41031;44.750;11.308;2022-10-10T16:41:38;25.93;;;8.30;;
55134;SDS011;41031;44.750;11.308;2022-10-10T16:44:13;22.83;;;6.10;;
55134;SDS011;41031;44.750;11.308;2022-10-10T16:46:41;14.83;;;5.40;;
55134;SDS011;41031;44.750;11.308;2022-10-10T16:49:08;18.40;;;6.00;;
55134;SDS011;41031;44.750;11.308;2022-10-10T16:51:37;11.47;;;4.93;;
55134;SDS011;41031;44.750;11.308;2022-10-10T16:54:04;9.57;;;4.53;;
55134;SDS011;41031;44.750;11.308;2022-10-10T16:56:31;8.97;;;5.00;;
55134;SDS011;41031;44.750;11.308;2022-10-10T16:58:59;14.93;;;8.30;;
55134;SDS011;41031;44.750;11.308;2022-10-10T17:01:27;18.03;;;11.37;;
55134;SDS011;41031;44.750;11.308;2022-10-10T17:03:56;12.47;;;5.80;;